Time;durP1;ratioP1;P1;durP2;ratioP2;P2;SDS_P1;SDS_P2;PMS_P1;PMS_P2;Temp;Humidity;BMP_temperature;BMP_pressure;BME280_temperature;BME280_humidity;BME280_pressure;Samples;Min_cycle;Max_cycle;Signal;HPM_P1;HPM_P2
2023/07/13 00:01:28;;;;;;;10.13;4.10;;;;;;;22.79;100.00;100121.59;5548623;32;33862;-63
2023/07/13 00:04:31;;;;;;;13.02;4.25;;;;;;;22.51;100.00;100106.38;5548416;32;33695;-62
2023/07/13 00:07:36;;;;;;;13.10;3.85;;;;;;;22.17;100.00;100108.37;5535031;32;33989;-63
2023/07/13 00:10:42;;;;;;;13.93;3.87;;;;;;;22.07;100.00;100127.16;5534866;32;33954;-63
2023/07/13 00:13:45;;;;;;;9.02;3.83;;;;;;;21.94;100.00;100114.81;5548623;32;33800;-63
2023/07/13 00:16:48;;;;;;;9.15;3.80;;;;;;;21.76;100.00;100092.63;5534950;32;34273;-64
2023/07/13 00:19:51;;;;;;;7.10;3.22;;;;;;;21.52;100.00;100062.31;5548499;32;34676;-64
2023/07/13 00:22:55;;;;;;;8.47;3.43;;;;;;;21.36;100.00;100073.91;5548930;32;33612;-63
2023/07/13 00:26:02;;;;;;;6.43;3.10;;;;;;;21.40;100.00;100069.66;5534801;32;33536;-63
2023/07/13 00:29:08;;;;;;;6.22;2.78;;;;;;;21.40;100.00;100046.19;5548445;32;33690;-63
2023/07/13 00:32:11;;;;;;;4.90;2.42;;;;;;;21.45;100.00;100023.87;5548363;32;34826;-62
2023/07/13 00:35:15;;;;;;;6.62;2.40;;;;;;;21.21;100.00;100015.97;5548578;32;33672;-62
2023/07/13 00:38:18;;;;;;;4.72;2.40;;;;;;;21.34;100.00;99998.63;5548828;32;34514;-63
2023/07/13 00:41:23;;;;;;;4.60;2.47;;;;;;;21.32;100.00;99991.84;5548246;32;34147;-63
2023/07/13 00:44:26;;;;;;;7.60;2.67;;;;;;;21.43;100.00;99977.44;5548427;32;34899;-62
2023/07/13 00:47:30;;;;;;;9.77;2.72;;;;;;;21.53;100.00;99978.41;5548309;32;33848;-62
2023/07/13 00:50:33;;;;;;;6.30;2.60;;;;;;;21.67;100.00;99982.38;5533624;32;35317;-63
2023/07/13 00:53:37;;;;;;;6.50;2.53;;;;;;;21.75;100.00;99980.28;5548299;32;33987;-62
2023/07/13 00:56:43;;;;;;;12.65;2.87;;;;;;;21.88;100.00;99972.63;5548166;32;33889;-63
2023/07/13 00:59:53;;;;;;;5.45;2.40;;;;;;;21.89;100.00;99966.16;5548162;32;33689;-62
2023/07/13 01:02:57;;;;;;;8.00;2.72;;;;;;;21.94;100.00;99957.31;5548176;32;33989;-63
2023/07/13 01:06:01;;;;;;;5.45;2.72;;;;;;;22.03;100.00;99959.34;5547969;32;33894;-62
2023/07/13 01:09:06;;;;;;;7.03;2.75;;;;;;;22.03;100.00;99948.53;5534409;32;34293;-62
2023/07/13 01:12:09;;;;;;;5.82;2.62;;;;;;;22.06;100.00;99949.91;5534546;32;34061;-62
2023/07/13 01:15:34;;;;;;;5.10;2.80;;;;;;;22.02;100.00;99959.59;5548090;32;34297;-62
2023/07/13 01:18:38;;;;;;;6.35;2.97;;;;;;;21.96;100.00;99972.22;5534186;32;33845;-62
2023/07/13 01:21:43;;;;;;;4.45;2.35;;;;;;;21.97;100.00;99971.16;5548061;32;34285;-62
2023/07/13 01:24:48;;;;;;;7.80;2.72;;;;;;;21.80;100.00;99969.56;5547882;32;33580;-62
2023/07/13 01:27:53;;;;;;;6.75;2.53;;;;;;;21.83;100.00;99956.37;5547962;32;33592;-62
2023/07/13 01:30:58;;;;;;;7.95;2.53;;;;;;;21.84;100.00;99982.28;5547806;32;33871;-62
2023/07/13 01:34:01;;;;;;;6.28;2.80;;;;;;;21.92;100.00;99959.44;5547877;32;34598;-62
2023/07/13 01:37:05;;;;;;;4.75;2.50;;;;;;;21.86;100.00;99950.47;5548138;32;34456;-62
2023/07/13 01:40:08;;;;;;;4.18;2.50;;;;;;;21.80;100.00;99947.94;5534131;32;33366;-62
2023/07/13 01:43:12;;;;;;;7.75;2.70;;;;;;;21.69;100.00;99955.91;5533938;32;34048;-62
2023/07/13 01:46:15;;;;;;;5.70;2.80;;;;;;;21.65;100.00;99946.69;5534290;32;35177;-62
2023/07/13 01:49:25;;;;;;;7.53;2.53;;;;;;;21.59;100.00;99941.50;5547765;32;33541;-62
2023/07/13 01:52:29;;;;;;;8.85;2.90;;;;;;;21.54;100.00;99933.31;5547604;32;34586;-62
2023/07/13 01:55:34;;;;;;;7.37;3.10;;;;;;;21.51;100.00;99933.81;5547769;32;33734;-62
2023/07/13 01:58:37;;;;;;;7.22;2.60;;;;;;;21.40;100.00;99929.34;5547639;32;33675;-62
2023/07/13 02:01:40;;;;;;;5.62;2.58;;;;;;;21.34;100.00;99924.97;5547053;32;34561;-61
2023/07/13 02:04:43;;;;;;;7.20;3.00;;;;;;;21.31;100.00;99918.16;5547622;32;33499;-62
2023/07/13 02:07:47;;;;;;;9.60;3.40;;;;;;;21.25;100.00;99919.97;5547429;32;33864;-62
2023/07/13 02:10:50;;;;;;;5.18;2.45;;;;;;;21.31;100.00;99917.34;5547625;32;34125;-62
2023/07/13 02:13:53;;;;;;;6.50;2.70;;;;;;;21.57;100.00;99916.63;5533661;32;33762;-62
2023/07/13 02:16:56;;;;;;;6.72;2.30;;;;;;;21.73;100.00;99918.44;5547737;32;34484;-62
2023/07/13 02:19:59;;;;;;;7.43;2.62;;;;;;;21.62;100.00;99927.50;5533786;32;34391;-62
2023/07/13 02:23:02;;;;;;;8.57;2.70;;;;;;;21.55;100.00;99930.34;5547325;32;34215;-62
2023/07/13 02:26:05;;;;;;;4.95;2.37;;;;;;;21.56;100.00;99926.59;5547419;32;35164;-62
2023/07/13 02:29:08;;;;;;;6.80;2.65;;;;;;;21.53;100.00;99939.78;5547310;32;34881;-63
2023/07/13 02:32:11;;;;;;;6.95;2.42;;;;;;;21.42;100.00;99944.22;5547131;32;34573;-63
2023/07/13 02:35:14;;;;;;;6.68;2.85;;;;;;;21.35;100.00;99934.69;5533575;32;33549;-62
2023/07/13 02:38:17;;;;;;;8.30;2.55;;;;;;;21.31;100.00;99936.22;5547137;32;33853;-62
2023/07/13 02:41:20;;;;;;;5.97;2.75;;;;;;;21.22;100.00;99952.03;5547051;32;34476;-62
2023/07/13 02:44:22;;;;;;;9.07;3.40;;;;;;;21.19;100.00;99952.53;5546867;32;34560;-62
2023/07/13 02:47:26;;;;;;;8.88;3.60;;;;;;;21.15;100.00;99946.00;5547250;32;32810;-62
2023/07/13 02:50:29;;;;;;;6.35;3.17;;;;;;;21.09;100.00;99936.97;5533204;32;34534;-62
2023/07/13 02:53:32;;;;;;;7.12;3.33;;;;;;;21.09;100.00;99952.34;5546786;32;34364;-62
2023/07/13 02:56:35;;;;;;;13.20;3.58;;;;;;;21.06;100.00;99953.63;5546736;32;33413;-62
2023/07/13 02:59:38;;;;;;;8.35;3.60;;;;;;;21.02;100.00;99963.28;5546713;32;33538;-62
2023/07/13 03:02:41;;;;;;;10.40;3.60;;;;;;;21.02;100.00;99960.59;5532288;32;33705;-62
2023/07/13 03:05:49;;;;;;;8.10;3.40;;;;;;;21.00;100.00;99957.34;5546737;32;33817;-62
2023/07/13 03:08:54;;;;;;;7.80;3.45;;;;;;;21.06;100.00;99960.91;5546912;32;33792;-62
2023/07/13 03:11:58;;;;;;;8.43;3.55;;;;;;;20.95;100.00;99983.41;5546844;32;33535;-62
2023/07/13 03:15:01;;;;;;;7.28;3.37;;;;;;;20.92;100.00;99984.69;5535173;32;33925;-62
2023/07/13 03:18:05;;;;;;;8.00;3.70;;;;;;;20.95;100.00;99995.03;5549168;32;34082;-62
2023/07/13 03:21:09;;;;;;;9.75;3.37;;;;;;;21.04;100.00;99981.94;5535306;32;34187;-62
2023/07/13 03:24:12;;;;;;;7.20;3.42;;;;;;;20.97;100.00;99987.47;5548989;32;33562;-62
2023/07/13 03:27:16;;;;;;;7.95;3.35;;;;;;;21.06;100.00;99985.19;5549180;32;33591;-62
2023/07/13 03:30:20;;;;;;;8.57;3.60;;;;;;;21.16;100.00;99975.41;5535612;32;33517;-62
2023/07/13 03:33:23;;;;;;;10.13;3.55;;;;;;;21.06;100.00;99971.69;5535470;32;33933;-62
2023/07/13 03:36:28;;;;;;;8.73;3.50;;;;;;;21.06;100.00;99990.59;5548831;32;34559;-62
2023/07/13 03:39:32;;;;;;;7.32;3.20;;;;;;;21.22;100.00;99979.81;5549287;32;34047;-63
2023/07/13 03:42:36;;;;;;;8.02;3.17;;;;;;;21.21;100.00;99963.87;5535386;32;33588;-62
2023/07/13 03:45:39;;;;;;;7.35;3.20;;;;;;;21.22;100.00;99969.03;5548649;32;33189;-62
2023/07/13 03:48:44;;;;;;;7.28;2.87;;;;;;;21.27;100.00;99983.66;5548870;32;33833;-62
2023/07/13 03:51:47;;;;;;;8.25;3.00;;;;;;;21.36;100.00;99985.69;5548858;32;32366;-62
2023/07/13 03:54:54;;;;;;;8.27;3.42;;;;;;;21.51;100.00;99988.63;5535961;32;33618;-62
2023/07/13 03:58:00;;;;;;;6.12;2.78;;;;;;;21.51;100.00;100004.00;5548869;32;33882;-62
2023/07/13 04:01:05;;;;;;;6.22;2.83;;;;;;;21.64;100.00;99990.94;5535252;32;33857;-62
2023/07/13 04:04:08;;;;;;;5.22;2.80;;;;;;;21.72;100.00;99988.91;5548715;32;33473;-62
2023/07/13 04:07:11;;;;;;;7.30;2.80;;;;;;;21.77;100.00;99989.78;5548835;32;33624;-62
2023/07/13 04:10:15;;;;;;;5.78;2.83;;;;;;;21.75;100.00;99991.91;5548681;32;33823;-61
2023/07/13 04:13:18;;;;;;;6.68;2.65;;;;;;;21.86;100.00;100001.78;5548529;32;34129;-62
2023/07/13 04:16:21;;;;;;;8.07;2.70;;;;;;;21.97;100.00;100021.66;5534817;32;32865;-62
2023/07/13 04:19:24;;;;;;;5.70;2.58;;;;;;;22.03;100.00;100045.78;5548478;32;34537;-62
2023/07/13 04:22:28;;;;;;;4.80;2.70;;;;;;;22.16;100.00;100063.50;5548865;32;33314;-62
2023/07/13 04:25:30;;;;;;;9.57;2.75;;;;;;;22.21;100.00;100070.87;5521840;32;33999;-61
2023/07/13 04:28:34;;;;;;;4.30;2.47;;;;;;;22.20;100.00;100080.03;5548534;32;34461;-62
2023/07/13 04:31:37;;;;;;;8.07;2.60;;;;;;;22.22;100.00;100072.50;5548446;32;33626;-62
2023/07/13 04:34:40;;;;;;;6.32;2.50;;;;;;;22.26;100.00;100068.22;5548518;32;33110;-61
2023/07/13 04:37:43;;;;;;;6.20;2.60;;;;;;;22.19;100.00;100071.09;5521877;32;33765;-62
2023/07/13 04:40:47;;;;;;;5.40;2.25;;;;;;;22.24;100.00;100078.47;5540807;32;34518;-62
2023/07/13 04:43:50;;;;;;;8.00;2.50;;;;;;;22.27;100.00;100077.97;5545068;32;33352;-62
2023/07/13 04:46:53;;;;;;;7.32;2.40;;;;;;;22.24;100.00;100090.09;5545437;32;34101;-62
2023/07/13 04:49:57;;;;;;;5.80;2.47;;;;;;;22.19;100.00;100100.84;5548115;32;33569;-62
2023/07/13 04:53:00;;;;;;;7.07;2.53;;;;;;;22.17;100.00;100104.87;5534641;32;33311;-62
2023/07/13 04:56:04;;;;;;;6.50;2.47;;;;;;;22.09;100.00;100109.62;5548326;32;33733;-61
2023/07/13 04:59:09;;;;;;;9.95;2.78;;;;;;;21.97;100.00;100117.03;5548335;32;33719;-62
2023/07/13 05:02:12;;;;;;;9.88;2.92;;;;;;;21.79;100.00;100136.16;5547994;32;34217;-62
2023/07/13 05:05:15;;;;;;;10.98;3.17;;;;;;;21.54;100.00;100149.28;5547947;32;34365;-62
2023/07/13 05:08:18;;;;;;;10.95;3.00;;;;;;;21.28;100.00;100166.06;5534311;32;33663;-62
2023/07/13 05:11:21;;;;;;;9.23;3.50;;;;;;;21.02;100.00;100192.53;5548122;32;33892;-63
2023/07/13 05:14:24;;;;;;;11.77;3.37;;;;;;;20.78;100.00;100228.72;5548007;32;34634;-63
2023/07/13 05:17:27;;;;;;;19.05;4.32;;;;;;;20.51;100.00;100274.25;5547969;32;34147;-63
2023/07/13 05:20:30;;;;;;;13.23;3.40;;;;;;;20.16;100.00;100273.38;5548083;32;34514;-62
2023/07/13 05:23:35;;;;;;;16.45;4.82;;;;;;;20.11;100.00;100295.63;5534449;32;33510;-67
2023/07/13 05:26:38;;;;;;;13.07;4.43;;;;;;;19.83;100.00;100298.16;5548112;32;33711;-67
2023/07/13 05:29:41;;;;;;;11.15;4.45;;;;;;;19.45;100.00;100291.25;5534748;32;34106;-67
2023/07/13 05:32:45;;;;;;;10.13;3.45;;;;;;;19.29;100.00;100288.31;5547856;32;33953;-67
2023/07/13 05:35:49;;;;;;;7.68;2.87;;;;;;;19.12;100.00;100283.53;5533812;32;34363;-68
2023/07/13 05:38:51;;;;;;;6.62;3.37;;;;;;;19.19;100.00;100291.53;5547669;32;34685;-68
2023/07/13 05:41:55;;;;;;;5.62;2.50;;;;;;;19.16;100.00;100283.94;5547741;32;33790;-68
2023/07/13 05:44:58;;;;;;;8.18;2.97;;;;;;;19.14;100.00;100283.31;5533605;32;33593;-69
2023/07/13 05:48:03;;;;;;;6.43;2.37;;;;;;;19.18;100.00;100268.38;5533146;32;34022;-71
2023/07/13 05:51:06;;;;;;;4.40;2.35;;;;;;;19.06;100.00;100270.19;5547482;32;33880;-72
2023/07/13 05:54:10;;;;;;;4.80;1.95;;;;;;;18.99;100.00;100281.03;5533972;32;34255;-68
2023/07/13 05:57:13;;;;;;;5.03;2.08;;;;;;;18.90;100.00;100271.63;5532650;32;33484;-69
2023/07/13 06:00:16;;;;;;;5.90;2.20;;;;;;;18.81;100.00;100256.84;5543047;32;33703;-68
2023/07/13 06:03:19;;;;;;;3.55;2.00;;;;;;;18.70;100.00;100246.81;5547447;32;33216;-68
2023/07/13 06:06:22;;;;;;;4.03;1.98;;;;;;;18.62;100.00;100245.28;5533574;32;33921;-67
2023/07/13 06:09:29;;;;;;;6.10;2.85;;;;;;;18.53;100.00;100246.63;5547643;32;32551;-68
2023/07/13 06:12:32;;;;;;;6.10;3.00;;;;;;;18.42;100.00;100225.81;5545902;32;33910;-68
2023/07/13 06:15:35;;;;;;;6.72;2.62;;;;;;;18.42;100.00;100192.75;5524595;32;33762;-67
2023/07/13 06:18:39;;;;;;;6.18;2.80;;;;;;;18.40;100.00;100147.31;5527963;32;33922;-67
2023/07/13 06:21:43;;;;;;;7.70;3.30;;;;;;;18.33;100.00;100000.75;5539619;32;35187;-67
2023/07/13 06:24:45;;;;;;;11.57;3.37;;;;;;;18.28;100.00;99836.78;5547192;32;34853;-68
2023/07/13 06:27:49;;;;;;;5.57;2.47;;;;;;;18.27;100.00;99954.13;5542587;32;35464;-67
2023/07/13 06:30:51;;;;;;;6.45;2.30;;;;;;;18.31;100.00;99973.28;5534252;32;34643;-66
2023/07/13 06:33:55;;;;;;;4.45;2.45;;;;;;;18.36;100.00;99887.47;5530211;32;33602;-69
2023/07/13 06:36:58;;;;;;;8.90;2.37;;;;;;;18.34;100.00;99885.03;5545778;32;34220;-68
2023/07/13 06:40:01;;;;;;;4.65;2.10;;;;;;;18.46;100.00;99901.97;5533523;32;33822;-67
2023/07/13 06:43:04;;;;;;;3.60;2.05;;;;;;;18.52;100.00;99911.81;5546890;32;33888;-66
2023/07/13 06:46:07;;;;;;;6.22;1.98;;;;;;;18.62;100.00;99920.16;5545128;32;33596;-67
2023/07/13 06:49:10;;;;;;;10.50;2.40;;;;;;;18.74;100.00;99920.16;5545645;32;34381;-67
2023/07/13 06:52:13;;;;;;;9.02;3.62;;;;;;;18.92;100.00;99935.38;5554276;32;33829;-67
2023/07/13 06:55:16;;;;;;;11.40;2.35;;;;;;;19.00;100.00;99914.34;5544165;32;33732;-67
2023/07/13 06:58:19;;;;;;;3.62;2.08;;;;;;;19.13;100.00;99905.22;5539201;32;33483;-68
2023/07/13 07:01:22;;;;;;;6.50;2.40;;;;;;;19.30;100.00;99905.31;5521175;32;34589;-70
2023/07/13 07:04:25;;;;;;;9.88;2.50;;;;;;;19.57;100.00;99928.00;5529811;32;33265;-70
2023/07/13 07:07:28;;;;;;;4.20;2.10;;;;;;;19.67;100.00;99904.00;5529770;32;34664;-70
2023/07/13 07:10:32;;;;;;;10.05;2.30;;;;;;;20.16;100.00;99910.59;5530235;32;34068;-73
2023/07/13 07:13:35;;;;;;;7.10;1.83;;;;;;;20.55;100.00;99925.06;5503641;32;34448;-76
2023/07/13 07:16:38;;;;;;;3.78;1.85;;;;;;;20.94;100.00;99947.53;5529738;32;33434;-72
2023/07/13 07:19:41;;;;;;;5.62;1.77;;;;;;;21.11;100.00;100025.72;5529546;32;34012;-71
2023/07/13 07:22:44;;;;;;;5.00;1.90;;;;;;;21.20;100.00;100073.66;5530166;32;35220;-78
2023/07/13 07:25:47;;;;;;;3.87;1.87;;;;;;;21.60;100.00;100051.09;5517079;32;35379;-75
2023/07/13 07:28:50;;;;;;;4.07;2.00;;;;;;;21.93;100.00;100080.75;5529247;32;34570;-76
2023/07/13 07:32:13;;;;;;;4.37;1.98;;;;;;;22.02;100.00;100073.88;5518793;32;34354;-74
2023/07/13 07:35:37;;;;;;;5.28;1.65;;;;;;;22.10;100.00;100097.75;5518338;32;34963;-70
2023/07/13 07:39:00;;;;;;;4.07;1.80;;;;;;;22.54;100.00;100114.78;5536755;32;33544;-68
2023/07/13 07:42:03;;;;;;;3.12;1.83;;;;;;;21.82;100.00;100124.87;5548776;32;34503;-68
2023/07/13 07:45:07;;;;;;;4.75;1.90;;;;;;;22.03;100.00;100121.41;5548269;32;32437;-69
2023/07/13 07:48:11;;;;;;;5.10;1.92;;;;;;;22.28;100.00;100122.81;5548530;32;34776;-68
2023/07/13 07:51:13;;;;;;;6.35;1.90;;;;;;;22.53;100.00;100132.09;5548546;32;33889;-69
2023/07/13 07:54:17;;;;;;;2.78;1.73;;;;;;;22.70;100.00;100129.34;5528054;32;33601;-68
2023/07/13 07:57:40;;;;;;;5.45;1.62;;;;;;;23.21;100.00;100127.16;5530343;32;33761;-67
2023/07/13 08:00:46;;;;;;;4.20;1.52;;;;;;;22.93;100.00;100133.66;5531660;32;34612;-69
2023/07/13 08:03:53;;;;;;;2.97;1.62;;;;;;;23.34;100.00;100141.06;5525936;32;34406;-66
2023/07/13 08:06:58;;;;;;;4.05;1.40;;;;;;;23.54;100.00;100136.94;5535788;32;33531;-67
2023/07/13 08:10:02;;;;;;;5.45;1.70;;;;;;;24.23;100.00;100149.37;5530383;32;33839;-65
2023/07/13 08:13:05;;;;;;;4.68;1.60;;;;;;;23.98;100.00;100137.53;5537680;32;33564;-65
2023/07/13 08:16:11;;;;;;;3.40;1.80;;;;;;;24.73;100.00;100144.44;5527625;32;34661;-66
2023/07/13 08:19:14;;;;;;;5.35;2.00;;;;;;;24.69;100.00;100125.97;5542111;32;34307;-66
2023/07/13 08:22:17;;;;;;;8.90;1.80;;;;;;;24.56;100.00;100133.78;5533772;32;33941;-66
2023/07/13 08:25:21;;;;;;;4.37;1.98;;;;;;;24.83;100.00;100137.16;5540747;32;34525;-64
2023/07/13 08:28:25;;;;;;;5.43;1.90;;;;;;;25.10;100.00;100143.22;5540929;32;34363;-64
2023/07/13 08:31:28;;;;;;;3.85;1.65;;;;;;;25.09;100.00;100151.63;5522228;32;34101;-65
2023/07/13 08:34:31;;;;;;;4.60;1.80;;;;;;;25.73;100.00;100146.53;5539324;32;34539;-64
2023/07/13 08:37:34;;;;;;;7.97;1.95;;;;;;;26.37;100.00;100144.00;5539071;32;34875;-66
2023/07/13 08:40:39;;;;;;;6.20;1.95;;;;;;;28.05;99.71;100143.69;5547387;32;34179;-64
2023/07/13 08:43:48;;;;;;;4.05;1.70;;;;;;;28.95;96.47;100136.34;5548202;32;33568;-65
2023/07/13 08:46:53;;;;;;;5.05;1.90;;;;;;;28.45;86.77;100134.28;5533963;32;34853;-65
2023/07/13 08:49:57;;;;;;;2.87;1.62;;;;;;;28.59;91.89;100143.38;5514871;32;33813;-65
2023/07/13 08:53:03;;;;;;;4.90;1.92;;;;;;;28.05;89.60;100144.50;5547705;32;34084;-65
2023/07/13 08:56:16;;;;;;;4.75;1.90;;;;;;;27.81;91.64;100138.22;5529512;32;32677;-64
2023/07/13 08:59:25;;;;;;;4.12;1.70;;;;;;;27.58;92.54;100137.06;5528489;32;33826;-63
2023/07/13 09:02:55;;;;;;;5.35;2.00;;;;;;;26.79;100.00;100137.28;5547880;32;33856;-64
2023/07/13 09:05:59;;;;;;;5.25;2.03;;;;;;;26.33;100.00;100139.38;5525357;32;33996;-64
2023/07/13 09:09:10;;;;;;;5.05;2.10;;;;;;;25.87;100.00;100144.91;5547643;32;32545;-63
2023/07/13 09:12:39;;;;;;;4.62;2.08;;;;;;;25.38;100.00;100136.47;5546674;32;35327;-64
2023/07/13 09:15:48;;;;;;;4.68;2.08;;;;;;;25.85;100.00;100148.97;5533126;32;34323;-63
2023/07/13 09:18:55;;;;;;;4.05;2.10;;;;;;;25.78;100.00;100140.28;5545876;32;34809;-64
2023/07/13 09:21:59;;;;;;;3.20;2.00;;;;;;;27.74;96.54;100142.37;5546281;32;35754;-64
2023/07/13 09:25:30;;;;;;;5.60;1.90;;;;;;;29.99;73.17;100146.19;5512067;32;34444;-66
2023/07/13 09:28:38;;;;;;;3.17;1.73;;;;;;;29.97;70.17;100142.94;5523905;32;32103;-65
2023/07/13 09:31:49;;;;;;;3.65;1.90;;;;;;;28.95;75.64;100149.19;5542533;32;34071;-65
2023/07/13 09:34:54;;;;;;;3.87;1.90;;;;;;;28.20;81.10;100145.47;5534260;32;33790;-65
2023/07/13 09:37:59;;;;;;;5.87;2.03;;;;;;;27.15;91.47;100157.78;5534653;32;33773;-64
2023/07/13 09:41:10;;;;;;;5.45;2.85;;;;;;;26.55;95.88;100142.56;5536961;32;33905;-65
2023/07/13 09:44:17;;;;;;;8.10;2.60;;;;;;;26.17;100.00;100162.25;5545341;32;34537;-65
2023/07/13 09:47:31;;;;;;;5.75;2.37;;;;;;;25.99;100.00;100151.94;5533086;32;34384;-64
2023/07/13 09:50:34;;;;;;;3.05;2.17;;;;;;;25.73;100.00;100170.19;5526728;32;33798;-63
2023/07/13 09:53:37;;;;;;;5.15;2.05;;;;;;;26.44;100.00;100178.22;5516518;32;33630;-63
2023/07/13 09:56:41;;;;;;;4.68;2.12;;;;;;;26.64;98.74;100168.09;5532505;32;32678;-63
2023/07/13 09:59:47;;;;;;;5.50;2.37;;;;;;;27.72;90.70;100169.91;5526979;32;33777;-62
2023/07/13 10:03:37;;;;;;;8.32;2.33;;;;;;;27.42;92.62;100172.84;5521631;32;33756;-63
2023/07/13 10:06:42;;;;;;;3.47;2.30;;;;;;;28.34;82.95;100168.22;5527778;32;34597;-63
2023/07/13 10:09:46;;;;;;;3.67;1.98;;;;;;;29.12;73.28;100154.97;5533707;32;32980;-62
2023/07/13 10:12:50;;;;;;;5.47;2.15;;;;;;;29.94;67.02;100162.69;5540216;32;34554;-63
2023/07/13 10:15:56;;;;;;;4.30;2.17;;;;;;;30.45;64.04;100171.56;5533618;32;33429;-63
2023/07/13 10:19:10;;;;;;;6.12;2.10;;;;;;;29.59;65.55;100172.28;5523515;32;34459;-62
2023/07/13 10:22:32;;;;;;;3.45;1.90;;;;;;;30.51;66.36;100170.38;5545286;32;34857;-63
2023/07/13 10:25:44;;;;;;;5.80;2.10;;;;;;;31.10;58.24;100171.34;5547277;32;33681;-62
2023/07/13 10:28:53;;;;;;;3.65;1.90;;;;;;;30.87;59.83;100162.22;5533079;32;34528;-63
2023/07/13 10:31:57;;;;;;;5.37;1.90;;;;;;;31.45;58.70;100170.50;5547180;32;33564;-62
2023/07/13 10:35:02;;;;;;;4.05;1.60;;;;;;;32.90;52.98;100173.50;5547158;32;33754;-62
2023/07/13 10:38:11;;;;;;;5.00;1.85;;;;;;;33.17;49.27;100170.47;5546031;32;33530;-62
2023/07/13 10:41:21;;;;;;;3.87;2.00;;;;;;;32.06;51.23;100176.37;5544950;32;34323;-63
2023/07/13 10:44:28;;;;;;;5.80;1.92;;;;;;;31.34;53.74;100177.34;5532260;32;33879;-62
2023/07/13 10:47:32;;;;;;;4.28;2.08;;;;;;;31.76;52.92;100167.81;5538179;32;33807;-61
2023/07/13 10:50:38;;;;;;;3.05;1.67;;;;;;;33.03;51.35;100178.84;5524626;32;32408;-60
2023/07/13 10:53:40;;;;;;;4.80;1.70;;;;;;;33.56;50.37;100181.31;5545957;32;34936;-62
2023/07/13 10:56:46;;;;;;;3.42;1.70;;;;;;;31.71;51.32;100175.41;5546660;32;34466;-61
2023/07/13 11:00:02;;;;;;;2.58;1.70;;;;;;;32.39;51.08;100187.91;5545831;32;34687;-61
2023/07/13 11:03:14;;;;;;;4.35;1.77;;;;;;;32.53;50.45;100186.66;5546066;32;33215;-61
2023/07/13 11:06:44;;;;;;;5.37;1.80;;;;;;;31.48;50.32;100166.31;5545770;32;33155;-60
2023/07/13 11:09:53;;;;;;;3.53;1.60;;;;;;;33.26;47.14;100168.53;5527215;32;33903;-62
2023/07/13 11:12:56;;;;;;;;;;;;;;;34.05;45.21;100165.38;5544255;32;32995;-62
2023/07/13 11:15:59;;;;;;;3.33;1.65;;;;;;;32.71;46.78;100158.13;5531815;32;33876;-63
2023/07/13 11:19:05;;;;;;;3.30;1.48;;;;;;;33.96;43.76;100170.91;5546182;32;33969;-62
2023/07/13 11:22:12;;;;;;;2.20;1.37;;;;;;;31.36;50.06;100171.56;5546033;32;34549;-62
2023/07/13 11:25:28;;;;;;;4.95;1.52;;;;;;;31.30;51.46;100170.88;5532743;32;34048;-63
2023/07/13 11:28:33;;;;;;;5.20;1.62;;;;;;;33.32;45.87;100161.75;5545714;32;34497;-63
2023/07/13 11:31:36;;;;;;;3.47;1.48;;;;;;;33.90;47.62;100174.97;5532193;32;34080;-62
2023/07/13 11:34:40;;;;;;;3.47;1.60;;;;;;;33.75;44.42;100160.91;5547244;32;33582;-62
2023/07/13 11:37:45;;;;;;;2.85;1.48;;;;;;;33.94;44.09;100156.66;5547163;32;33961;-62
2023/07/13 11:40:53;;;;;;;1.73;1.30;;;;;;;32.87;46.20;100154.94;5542557;32;33913;-63
2023/07/13 11:44:15;;;;;;;3.33;1.37;;;;;;;36.65;39.86;100155.41;5548591;32;33841;-62
2023/07/13 11:47:22;;;;;;;2.83;1.40;;;;;;;35.94;38.53;100144.75;5548645;32;34329;-63
2023/07/13 11:50:26;;;;;;;3.33;1.53;;;;;;;35.26;38.73;100160.03;5535150;32;33835;-61
2023/07/13 11:53:36;;;;;;;4.47;1.70;;;;;;;34.13;41.29;100155.47;5548669;32;34959;-62
2023/07/13 11:56:40;;;;;;;3.33;1.48;;;;;;;35.33;40.08;100152.03;5535721;32;34186;-62
2023/07/13 11:59:44;;;;;;;2.15;1.52;;;;;;;34.28;41.12;100157.69;5549046;32;34033;-63
2023/07/13 12:02:50;;;;;;;2.87;1.52;;;;;;;35.87;39.54;100161.09;5548306;32;34090;-63
2023/07/13 12:06:00;;;;;;;2.42;1.48;;;;;;;37.37;38.50;100157.22;5548326;32;32942;-62
2023/07/13 12:09:19;;;;;;;4.85;1.75;;;;;;;35.83;38.44;100151.84;5548798;32;33897;-62
2023/07/13 12:12:22;;;;;;;4.60;1.45;;;;;;;35.15;39.49;100148.56;5547400;32;33837;-61
2023/07/13 12:15:51;;;;;;;2.92;1.48;;;;;;;34.69;41.06;100146.00;5548242;32;35583;-64
2023/07/13 12:18:56;;;;;;;5.28;1.80;;;;;;;35.59;38.63;100137.97;5534915;32;34620;-63
2023/07/13 12:21:59;;;;;;;4.05;1.77;;;;;;;34.84;40.05;100140.72;5548217;32;33790;-62
2023/07/13 12:25:04;;;;;;;2.53;1.60;;;;;;;35.54;39.16;100136.22;5534504;32;33672;-62
2023/07/13 12:28:40;;;;;;;3.40;1.67;;;;;;;34.69;40.91;100146.81;5542466;32;33486;-61
2023/07/13 12:31:46;;;;;;;5.18;1.80;;;;;;;34.21;41.10;100155.47;5510311;32;33872;-61
2023/07/13 12:34:55;;;;;;;2.97;1.70;;;;;;;36.11;38.25;100135.47;5545367;32;34698;-63
2023/07/13 12:38:00;;;;;;;2.33;1.87;;;;;;;35.55;39.08;100134.28;5533937;32;33826;-63
2023/07/13 12:41:03;;;;;;;3.65;1.85;;;;;;;35.56;38.76;100133.13;5532518;32;33905;-62
2023/07/13 12:44:12;;;;;;;2.90;1.80;;;;;;;35.48;38.83;100125.75;5540557;32;33919;-61
2023/07/13 12:47:16;;;;;;;3.42;1.85;;;;;;;36.73;38.26;100123.28;5566462;32;34238;-63
2023/07/13 12:50:22;;;;;;;3.67;1.73;;;;;;;36.48;37.50;100125.25;5567682;32;33909;-61
2023/07/13 12:53:32;;;;;;;2.70;1.67;;;;;;;36.40;37.29;100128.94;5567780;32;34631;-61
2023/07/13 12:56:36;;;;;;;4.87;1.90;;;;;;;34.57;40.42;100119.13;5567833;32;34418;-63
2023/07/13 12:59:39;;;;;;;2.47;1.50;;;;;;;37.08;35.50;100118.84;5567560;32;34385;-62
2023/07/13 13:02:43;;;;;;;3.12;1.73;;;;;;;36.97;34.77;100121.25;5559047;32;33458;-62
2023/07/13 13:05:46;;;;;;;3.45;1.92;;;;;;;35.69;36.96;100109.97;5548356;32;34986;-61
2023/07/13 13:08:57;;;;;;;3.78;1.70;;;;;;;38.59;33.55;100117.66;5534383;32;33828;-61
2023/07/13 13:12:01;;;;;;;3.70;1.70;;;;;;;38.06;34.66;100130.22;5544812;32;33669;-63
2023/07/13 13:15:06;;;;;;;3.65;1.70;;;;;;;37.29;33.95;100132.47;5524135;32;33574;-62
2023/07/13 13:18:20;;;;;;;4.35;1.70;;;;;;;37.80;34.89;100122.44;5540835;32;33603;-61
2023/07/13 13:21:25;;;;;;;6.20;1.80;;;;;;;39.06;32.50;100114.75;5528052;32;34474;-62
2023/07/13 13:24:29;;;;;;;4.03;1.58;;;;;;;37.84;33.47;100103.94;5528311;32;33897;-62
2023/07/13 13:27:32;;;;;;;2.35;1.60;;;;;;;37.05;34.56;100100.12;5530961;32;33390;-62
2023/07/13 13:30:35;;;;;;;4.93;1.73;;;;;;;39.11;32.09;100120.03;5538625;32;34442;-61
2023/07/13 13:33:43;;;;;;;2.87;1.90;;;;;;;38.74;32.38;100102.94;5528797;32;33826;-62
2023/07/13 13:36:47;;;;;;;2.37;1.80;;;;;;;38.09;33.53;100110.94;5528010;32;33804;-63
2023/07/13 13:39:55;;;;;;;4.87;1.80;;;;;;;36.72;34.56;100105.88;5528301;32;33648;-61
2023/07/13 13:43:25;;;;;;;2.37;1.65;;;;;;;37.24;34.10;100108.63;5516198;32;35172;-62
2023/07/13 13:46:30;;;;;;;;;;;;;;;36.34;35.57;100097.97;5546462;32;33771;-62
2023/07/13 13:49:32;;;;;;;2.67;1.67;;;;;;;36.61;34.88;100098.41;5533674;32;34440;-62
2023/07/13 13:52:36;;;;;;;5.95;1.85;;;;;;;36.64;35.22;100090.25;5547375;32;33646;-61
2023/07/13 13:55:41;;;;;;;2.60;2.05;;;;;;;36.80;35.10;100093.88;5546979;32;33995;-61
2023/07/13 13:58:46;;;;;;;2.75;1.83;;;;;;;36.58;35.20;100099.91;5546393;32;33876;-61
2023/07/13 14:01:49;;;;;;;2.47;1.65;;;;;;;34.92;38.05;100094.09;5529278;32;34394;-61
2023/07/13 14:05:03;;;;;;;4.65;1.95;;;;;;;35.10;38.74;100088.09;5526700;32;34294;-61
2023/07/13 14:08:14;;;;;;;2.92;1.98;;;;;;;35.54;37.54;100088.50;5528153;32;33864;-62
2023/07/13 14:11:20;;;;;;;4.12;2.05;;;;;;;34.14;40.77;100110.25;5547029;32;33694;-61
2023/07/13 14:14:27;;;;;;;2.85;1.90;;;;;;;32.65;43.79;100093.47;5541703;32;33279;-60
2023/07/13 14:17:31;;;;;;;3.00;1.92;;;;;;;33.02;43.06;100100.28;5529281;32;33592;-61
2023/07/13 14:20:34;;;;;;;2.85;1.70;;;;;;;32.85;42.94;100100.28;5546782;32;33264;-60